sensor_id;sensor_type;location;lat;lon;timestamp;temperature;humidity
29321;DHT22;16323;51.130;6.612;2023-04-15T00:01:51;18.10;66.50
29321;DHT22;16323;51.130;6.612;2023-04-15T00:04:18;18.10;66.30
29321;DHT22;16323;51.130;6.612;2023-04-15T00:06:49;18.10;66.30
29321;DHT22;16323;51.130;6.612;2023-04-15T00:09:19;18.10;66.30
29321;DHT22;16323;51.130;6.612;2023-04-15T00:11:46;18.10;66.30
29321;DHT22;16323;51.130;6.612;2023-04-15T00:14:13;18.10;66.40
29321;DHT22;16323;51.130;6.612;2023-04-15T00:16:40;18.10;67.00
29321;DHT22;16323;51.130;6.612;2023-04-15T00:19:06;18.10;67.10
29321;DHT22;16323;51.130;6.612;2023-04-15T00:21:34;18.10;67.20
29321;DHT22;16323;51.130;6.612;2023-04-15T00:24:00;18.10;67.20
29321;DHT22;16323;51.130;6.612;2023-04-15T00:26:29;18.10;66.80
29321;DHT22;16323;51.130;6.612;2023-04-15T00:28:56;18.10;66.60
29321;DHT22;16323;51.130;6.612;2023-04-15T00:31:23;18.00;66.60
29321;DHT22;16323;51.130;6.612;2023-04-15T00:33:50;18.00;66.90
29321;DHT22;16323;51.130;6.612;2023-04-15T00:36:17;18.00;65.20
29321;DHT22;16323;51.130;6.612;2023-04-15T00:38:44;18.00;65.80
29321;DHT22;16323;51.130;6.612;2023-04-15T00:41:11;18.00;65.20
29321;DHT22;16323;51.130;6.612;2023-04-15T00:43:39;18.00;65.20
29321;DHT22;16323;51.130;6.612;2023-04-15T00:46:07;18.00;65.30
29321;DHT22;16323;51.130;6.612;2023-04-15T00:48:35;17.90;64.90
29321;DHT22;16323;51.130;6.612;2023-04-15T00:51:02;18.00;65.40
29321;DHT22;16323;51.130;6.612;2023-04-15T00:53:29;18.00;65.50
29321;DHT22;16323;51.130;6.612;2023-04-15T00:55:56;18.00;65.50
29321;DHT22;16323;51.130;6.612;2023-04-15T00:58:23;18.00;65.70
29321;DHT22;16323;51.130;6.612;2023-04-15T01:00:52;18.00;65.90
29321;DHT22;16323;51.130;6.612;2023-04-15T01:03:19;18.00;66.50
29321;DHT22;16323;51.130;6.612;2023-04-15T01:05:46;18.00;66.80
29321;DHT22;16323;51.130;6.612;2023-04-15T01:08:13;18.00;67.80
29321;DHT22;16323;51.130;6.612;2023-04-15T01:10:40;18.10;66.70
29321;DHT22;16323;51.130;6.612;2023-04-15T01:13:08;18.10;67.20
29321;DHT22;16323;51.130;6.612;2023-04-15T01:15:35;18.10;67.00
29321;DHT22;16323;51.130;6.612;2023-04-15T01:18:03;18.10;67.10
29321;DHT22;16323;51.130;6.612;2023-04-15T01:20:30;18.10;67.00
29321;DHT22;16323;51.130;6.612;2023-04-15T01:22:57;18.10;66.70
29321;DHT22;16323;51.130;6.612;2023-04-15T01:25:30;18.10;66.60
29321;DHT22;16323;51.130;6.612;2023-04-15T01:27:57;18.00;67.00
29321;DHT22;16323;51.130;6.612;2023-04-15T01:30:24;18.00;66.70
29321;DHT22;16323;51.130;6.612;2023-04-15T01:32:52;18.00;66.60
29321;DHT22;16323;51.130;6.612;2023-04-15T01:35:19;18.00;66.40
29321;DHT22;16323;51.130;6.612;2023-04-15T01:37:47;18.00;66.50
29321;DHT22;16323;51.130;6.612;2023-04-15T01:40:13;18.00;66.40
29321;DHT22;16323;51.130;6.612;2023-04-15T01:42:42;18.00;66.60
29321;DHT22;16323;51.130;6.612;2023-04-15T01:45:09;18.00;66.70
29321;DHT22;16323;51.130;6.612;2023-04-15T01:47:36;18.00;67.60
29321;DHT22;16323;51.130;6.612;2023-04-15T01:50:04;18.00;67.70
29321;DHT22;16323;51.130;6.612;2023-04-15T01:52:31;18.00;68.10
29321;DHT22;16323;51.130;6.612;2023-04-15T01:54:58;18.10;67.60
29321;DHT22;16323;51.130;6.612;2023-04-15T01:57:25;18.10;67.70
29321;DHT22;16323;51.130;6.612;2023-04-15T01:59:53;18.10;67.80
29321;DHT22;16323;51.130;6.612;2023-04-15T02:02:20;18.10;67.80
29321;DHT22;16323;51.130;6.612;2023-04-15T02:04:47;18.10;67.70
29321;DHT22;16323;51.130;6.612;2023-04-15T02:07:14;18.10;67.00
29321;DHT22;16323;51.130;6.612;2023-04-15T02:09:41;18.10;67.40
29321;DHT22;16323;51.130;6.612;2023-04-15T02:12:10;18.00;66.90
29321;DHT22;16323;51.130;6.612;2023-04-15T02:14:37;18.00;67.30
29321;DHT22;16323;51.130;6.612;2023-04-15T02:17:05;18.00;67.00
29321;DHT22;16323;51.130;6.612;2023-04-15T02:19:32;18.00;66.90
29321;DHT22;16323;51.130;6.612;2023-04-15T02:21:59;18.00;66.70
29321;DHT22;16323;51.130;6.612;2023-04-15T02:24:28;18.00;67.10
29321;DHT22;16323;51.130;6.612;2023-04-15T02:26:55;18.00;66.60
29321;DHT22;16323;51.130;6.612;2023-04-15T02:29:22;18.00;66.80
29321;DHT22;16323;51.130;6.612;2023-04-15T02:31:49;18.00;67.40
29321;DHT22;16323;51.130;6.612;2023-04-15T02:34:17;18.00;68.10
29321;DHT22;16323;51.130;6.612;2023-04-15T02:36:44;18.00;68.00
29321;DHT22;16323;51.130;6.612;2023-04-15T02:39:11;18.00;68.20
29321;DHT22;16323;51.130;6.612;2023-04-15T02:41:41;18.00;68.00
29321;DHT22;16323;51.130;6.612;2023-04-15T02:44:08;18.00;67.60
29321;DHT22;16323;51.130;6.612;2023-04-15T02:46:37;18.10;67.90
29321;DHT22;16323;51.130;6.612;2023-04-15T02:49:05;18.00;68.00
29321;DHT22;16323;51.130;6.612;2023-04-15T02:51:34;18.10;67.60
29321;DHT22;16323;51.130;6.612;2023-04-15T02:54:01;18.10;67.50
29321;DHT22;16323;51.130;6.612;2023-04-15T02:56:27;18.00;67.60
29321;DHT22;16323;51.130;6.612;2023-04-15T02:58:54;18.00;67.10
29321;DHT22;16323;51.130;6.612;2023-04-15T03:01:21;18.00;67.10
29321;DHT22;16323;51.130;6.612;2023-04-15T03:03:48;18.00;66.60
29321;DHT22;16323;51.130;6.612;2023-04-15T03:06:15;18.00;66.60
29321;DHT22;16323;51.130;6.612;2023-04-15T03:08:43;18.00;66.70
29321;DHT22;16323;51.130;6.612;2023-04-15T03:11:10;18.00;67.10
29321;DHT22;16323;51.130;6.612;2023-04-15T03:13:37;18.00;67.30
29321;DHT22;16323;51.130;6.612;2023-04-15T03:16:06;18.00;68.20
29321;DHT22;16323;51.130;6.612;2023-04-15T03:18:33;18.00;70.10
29321;DHT22;16323;51.130;6.612;2023-04-15T03:21:00;18.00;69.40
29321;DHT22;16323;51.130;6.612;2023-04-15T03:23:27;17.90;69.00
29321;DHT22;16323;51.130;6.612;2023-04-15T03:25:55;18.00;69.50
29321;DHT22;16323;51.130;6.612;2023-04-15T03:28:23;18.00;69.20
29321;DHT22;16323;51.130;6.612;2023-04-15T03:30:50;17.90;69.10
29321;DHT22;16323;51.130;6.612;2023-04-15T03:33:17;18.00;69.20
29321;DHT22;16323;51.130;6.612;2023-04-15T03:35:43;18.00;69.20
29321;DHT22;16323;51.130;6.612;2023-04-15T03:38:10;17.90;69.00
29321;DHT22;16323;51.130;6.612;2023-04-15T03:40:37;17.90;68.80
29321;DHT22;16323;51.130;6.612;2023-04-15T03:43:06;17.90;68.50
29321;DHT22;16323;51.130;6.612;2023-04-15T03:45:33;17.90;68.40
29321;DHT22;16323;51.130;6.612;2023-04-15T03:48:00;17.90;68.00
29321;DHT22;16323;51.130;6.612;2023-04-15T03:50:26;17.90;67.80
29321;DHT22;16323;51.130;6.612;2023-04-15T03:52:54;17.90;68.00
29321;DHT22;16323;51.130;6.612;2023-04-15T03:55:21;17.90;67.80
29321;DHT22;16323;51.130;6.612;2023-04-15T03:57:48;17.90;67.50
29321;DHT22;16323;51.130;6.612;2023-04-15T04:00:16;17.90;67.70
29321;DHT22;16323;51.130;6.612;2023-04-15T04:02:43;17.90;68.60
29321;DHT22;16323;51.130;6.612;2023-04-15T04:05:10;17.90;68.70
29321;DHT22;16323;51.130;6.612;2023-04-15T04:07:37;17.90;68.80
29321;DHT22;16323;51.130;6.612;2023-04-15T04:10:04;17.90;69.00
29321;DHT22;16323;51.130;6.612;2023-04-15T04:12:31;17.90;69.10
29321;DHT22;16323;51.130;6.612;2023-04-15T04:14:58;17.90;68.90
29321;DHT22;16323;51.130;6.612;2023-04-15T04:17:26;17.90;68.80
29321;DHT22;16323;51.130;6.612;2023-04-15T04:19:53;17.90;68.60
29321;DHT22;16323;51.130;6.612;2023-04-15T04:22:21;17.90;68.40
29321;DHT22;16323;51.130;6.612;2023-04-15T04:24:48;17.90;68.50
29321;DHT22;16323;51.130;6.612;2023-04-15T04:27:15;17.90;68.20
29321;DHT22;16323;51.130;6.612;2023-04-15T04:29:42;17.90;68.00
29321;DHT22;16323;51.130;6.612;2023-04-15T04:32:09;17.90;67.60
29321;DHT22;16323;51.130;6.612;2023-04-15T04:34:37;17.90;67.20
29321;DHT22;16323;51.130;6.612;2023-04-15T04:37:05;17.90;67.00
29321;DHT22;16323;51.130;6.612;2023-04-15T04:39:31;17.90;66.70
29321;DHT22;16323;51.130;6.612;2023-04-15T04:41:58;17.90;66.50
29321;DHT22;16323;51.130;6.612;2023-04-15T04:44:25;17.90;66.60
29321;DHT22;16323;51.130;6.612;2023-04-15T04:46:52;17.90;67.30
29321;DHT22;16323;51.130;6.612;2023-04-15T04:49:19;17.90;67.90
29321;DHT22;16323;51.130;6.612;2023-04-15T04:51:47;17.90;68.40
29321;DHT22;16323;51.130;6.612;2023-04-15T04:54:14;17.90;68.40
29321;DHT22;16323;51.130;6.612;2023-04-15T04:56:42;17.90;68.50
29321;DHT22;16323;51.130;6.612;2023-04-15T04:59:08;17.90;68.50
29321;DHT22;16323;51.130;6.612;2023-04-15T05:01:35;17.90;68.40
29321;DHT22;16323;51.130;6.612;2023-04-15T05:04:02;17.90;68.60
29321;DHT22;16323;51.130;6.612;2023-04-15T05:06:29;17.90;68.50
29321;DHT22;16323;51.130;6.612;2023-04-15T05:08:58;17.90;68.00
29321;DHT22;16323;51.130;6.612;2023-04-15T05:11:25;17.90;67.70
29321;DHT22;16323;51.130;6.612;2023-04-15T05:13:52;17.90;67.50
29321;DHT22;16323;51.130;6.612;2023-04-15T05:16:19;17.90;67.40
29321;DHT22;16323;51.130;6.612;2023-04-15T05:18:46;17.90;66.70
29321;DHT22;16323;51.130;6.612;2023-04-15T05:21:13;17.90;66.60
29321;DHT22;16323;51.130;6.612;2023-04-15T05:23:40;17.90;67.40
29321;DHT22;16323;51.130;6.612;2023-04-15T05:26:08;17.90;66.20
29321;DHT22;16323;51.130;6.612;2023-04-15T05:28:35;17.90;66.10
29321;DHT22;16323;51.130;6.612;2023-04-15T05:31:02;17.90;67.20
29321;DHT22;16323;51.130;6.612;2023-04-15T05:33:28;17.90;67.60
29321;DHT22;16323;51.130;6.612;2023-04-15T05:35:55;17.90;67.80
29321;DHT22;16323;51.130;6.612;2023-04-15T05:38:22;17.90;67.60
29321;DHT22;16323;51.130;6.612;2023-04-15T05:40:49;17.90;67.30
29321;DHT22;16323;51.130;6.612;2023-04-15T05:43:17;17.90;67.50
29321;DHT22;16323;51.130;6.612;2023-04-15T05:45:44;18.00;67.70
29321;DHT22;16323;51.130;6.612;2023-04-15T05:48:11;17.90;68.10
29321;DHT22;16323;51.130;6.612;2023-04-15T05:50:39;17.90;67.70
29321;DHT22;16323;51.130;6.612;2023-04-15T05:53:07;17.90;68.10
29321;DHT22;16323;51.130;6.612;2023-04-15T05:55:33;17.90;68.10
29321;DHT22;16323;51.130;6.612;2023-04-15T05:58:00;17.90;68.00
29321;DHT22;16323;51.130;6.612;2023-04-15T06:00:29;17.90;67.70
29321;DHT22;16323;51.130;6.612;2023-04-15T06:02:57;17.90;67.70
29321;DHT22;16323;51.130;6.612;2023-04-15T06:05:24;17.90;67.00
29321;DHT22;16323;51.130;6.612;2023-04-15T06:07:52;17.80;67.30
29321;DHT22;16323;51.130;6.612;2023-04-15T06:10:18;17.90;67.10
29321;DHT22;16323;51.130;6.612;2023-04-15T06:12:45;17.90;66.70
29321;DHT22;16323;51.130;6.612;2023-04-15T06:15:12;17.90;67.00
29321;DHT22;16323;51.130;6.612;2023-04-15T06:17:40;17.90;67.50
29321;DHT22;16323;51.130;6.612;2023-04-15T06:20:08;17.90;67.80
29321;DHT22;16323;51.130;6.612;2023-04-15T06:22:36;17.90;67.70
29321;DHT22;16323;51.130;6.612;2023-04-15T06:25:04;17.90;68.00
29321;DHT22;16323;51.130;6.612;2023-04-15T06:27:32;17.90;67.90
29321;DHT22;16323;51.130;6.612;2023-04-15T06:29:59;17.90;67.80
29321;DHT22;16323;51.130;6.612;2023-04-15T06:32:26;17.90;67.90
29321;DHT22;16323;51.130;6.612;2023-04-15T06:34:54;17.90;67.60
29321;DHT22;16323;51.130;6.612;2023-04-15T06:37:21;17.90;68.20
29321;DHT22;16323;51.130;6.612;2023-04-15T06:39:47;17.90;66.60
29321;DHT22;16323;51.130;6.612;2023-04-15T06:42:15;17.90;66.90
29321;DHT22;16323;51.130;6.612;2023-04-15T06:44:41;17.90;67.10
29321;DHT22;16323;51.130;6.612;2023-04-15T06:47:08;17.80;66.80
29321;DHT22;16323;51.130;6.612;2023-04-15T06:49:37;17.90;66.30
29321;DHT22;16323;51.130;6.612;2023-04-15T06:52:06;17.90;66.30
29321;DHT22;16323;51.130;6.612;2023-04-15T06:54:33;17.80;66.40
29321;DHT22;16323;51.130;6.612;2023-04-15T06:57:00;17.80;66.40
29321;DHT22;16323;51.130;6.612;2023-04-15T06:59:27;17.90;66.60
29321;DHT22;16323;51.130;6.612;2023-04-15T07:01:53;17.90;66.90
29321;DHT22;16323;51.130;6.612;2023-04-15T07:04:20;17.90;67.10
29321;DHT22;16323;51.130;6.612;2023-04-15T07:06:47;17.90;67.10
29321;DHT22;16323;51.130;6.612;2023-04-15T07:09:15;17.90;66.60
29321;DHT22;16323;51.130;6.612;2023-04-15T07:11:42;17.90;66.20
29321;DHT22;16323;51.130;6.612;2023-04-15T07:14:09;17.90;65.50
29321;DHT22;16323;51.130;6.612;2023-04-15T07:16:36;17.90;65.40
29321;DHT22;16323;51.130;6.612;2023-04-15T07:19:02;17.90;65.20
29321;DHT22;16323;51.130;6.612;2023-04-15T07:21:29;17.90;64.90
29321;DHT22;16323;51.130;6.612;2023-04-15T07:23:56;17.90;64.10
29321;DHT22;16323;51.130;6.612;2023-04-15T07:26:25;17.90;63.50
29321;DHT22;16323;51.130;6.612;2023-04-15T07:28:52;17.80;63.00
29321;DHT22;16323;51.130;6.612;2023-04-15T07:31:18;17.80;62.90
29321;DHT22;16323;51.130;6.612;2023-04-15T07:33:45;17.80;63.10
29321;DHT22;16323;51.130;6.612;2023-04-15T07:36:12;17.80;63.70
29321;DHT22;16323;51.130;6.612;2023-04-15T07:38:40;17.80;65.40
29321;DHT22;16323;51.130;6.612;2023-04-15T07:41:07;17.80;63.30
29321;DHT22;16323;51.130;6.612;2023-04-15T07:43:36;17.80;63.60
29321;DHT22;16323;51.130;6.612;2023-04-15T07:46:03;17.80;64.70
29321;DHT22;16323;51.130;6.612;2023-04-15T07:48:31;17.80;64.60
29321;DHT22;16323;51.130;6.612;2023-04-15T07:50:58;17.80;65.40
29321;DHT22;16323;51.130;6.612;2023-04-15T07:53:25;17.80;65.40
29321;DHT22;16323;51.130;6.612;2023-04-15T07:55:51;17.80;65.10
29321;DHT22;16323;51.130;6.612;2023-04-15T07:58:18;17.80;65.90
29321;DHT22;16323;51.130;6.612;2023-04-15T08:00:46;17.90;65.80
29321;DHT22;16323;51.130;6.612;2023-04-15T08:03:13;17.90;65.80
29321;DHT22;16323;51.130;6.612;2023-04-15T08:05:41;17.90;65.70
29321;DHT22;16323;51.130;6.612;2023-04-15T08:08:07;17.90;65.40
29321;DHT22;16323;51.130;6.612;2023-04-15T08:10:34;17.90;65.60
29321;DHT22;16323;51.130;6.612;2023-04-15T08:13:01;17.90;65.50
29321;DHT22;16323;51.130;6.612;2023-04-15T08:15:28;17.90;65.60
29321;DHT22;16323;51.130;6.612;2023-04-15T08:17:58;17.90;65.50
29321;DHT22;16323;51.130;6.612;2023-04-15T08:20:26;17.90;65.60
29321;DHT22;16323;51.130;6.612;2023-04-15T08:22:53;17.90;65.80
29321;DHT22;16323;51.130;6.612;2023-04-15T08:25:19;17.90;65.90
29321;DHT22;16323;51.130;6.612;2023-04-15T08:27:46;17.90;65.90
29321;DHT22;16323;51.130;6.612;2023-04-15T08:30:13;17.90;66.10
29321;DHT22;16323;51.130;6.612;2023-04-15T08:32:41;17.90;66.60
29321;DHT22;16323;51.130;6.612;2023-04-15T08:35:09;17.90;66.60
29321;DHT22;16323;51.130;6.612;2023-04-15T08:37:36;18.00;66.80
29321;DHT22;16323;51.130;6.612;2023-04-15T08:40:04;18.00;66.70
29321;DHT22;16323;51.130;6.612;2023-04-15T08:42:36;18.00;66.60
29321;DHT22;16323;51.130;6.612;2023-04-15T08:45:04;18.00;66.80
29321;DHT22;16323;51.130;6.612;2023-04-15T08:47:30;18.00;67.00
29321;DHT22;16323;51.130;6.612;2023-04-15T08:49:58;18.00;66.60
29321;DHT22;16323;51.130;6.612;2023-04-15T08:52:30;18.00;66.30
29321;DHT22;16323;51.130;6.612;2023-04-15T08:54:59;18.00;66.30
29321;DHT22;16323;51.130;6.612;2023-04-15T08:57:27;18.00;66.10
29321;DHT22;16323;51.130;6.612;2023-04-15T08:59:55;17.90;66.10
29321;DHT22;16323;51.130;6.612;2023-04-15T09:02:23;17.90;66.10
29321;DHT22;16323;51.130;6.612;2023-04-15T09:04:50;18.00;66.40
29321;DHT22;16323;51.130;6.612;2023-04-15T09:07:16;18.00;66.10
29321;DHT22;16323;51.130;6.612;2023-04-15T09:09:45;17.90;66.10
29321;DHT22;16323;51.130;6.612;2023-04-15T09:12:12;17.90;66.00
29321;DHT22;16323;51.130;6.612;2023-04-15T09:14:39;18.00;66.10
29321;DHT22;16323;51.130;6.612;2023-04-15T09:17:09;18.00;66.70
29321;DHT22;16323;51.130;6.612;2023-04-15T09:19:36;18.00;66.40
29321;DHT22;16323;51.130;6.612;2023-04-15T09:22:03;18.00;66.70
29321;DHT22;16323;51.130;6.612;2023-04-15T09:24:35;18.00;66.80
29321;DHT22;16323;51.130;6.612;2023-04-15T09:27:05;18.00;66.70
29321;DHT22;16323;51.130;6.612;2023-04-15T09:29:32;18.00;66.90
29321;DHT22;16323;51.130;6.612;2023-04-15T09:32:09;18.00;66.90
29321;DHT22;16323;51.130;6.612;2023-04-15T09:34:36;18.00;66.90
29321;DHT22;16323;51.130;6.612;2023-04-15T09:37:03;18.00;66.60
29321;DHT22;16323;51.130;6.612;2023-04-15T09:39:45;18.00;66.10
29321;DHT22;16323;51.130;6.612;2023-04-15T09:42:14;18.00;66.10
29321;DHT22;16323;51.130;6.612;2023-04-15T09:44:42;18.00;66.10
29321;DHT22;16323;51.130;6.612;2023-04-15T09:47:08;18.00;66.20
29321;DHT22;16323;51.130;6.612;2023-04-15T09:49:35;18.00;65.90
29321;DHT22;16323;51.130;6.612;2023-04-15T09:52:02;18.00;66.10
29321;DHT22;16323;51.130;6.612;2023-04-15T09:54:33;18.00;65.80
29321;DHT22;16323;51.130;6.612;2023-04-15T09:57:07;18.00;65.80
29321;DHT22;16323;51.130;6.612;2023-04-15T09:59:35;18.00;65.80
29321;DHT22;16323;51.130;6.612;2023-04-15T10:02:04;18.00;66.60
29321;DHT22;16323;51.130;6.612;2023-04-15T10:04:34;18.00;66.30
29321;DHT22;16323;51.130;6.612;2023-04-15T10:07:03;18.00;66.10
29321;DHT22;16323;51.130;6.612;2023-04-15T10:09:31;18.00;66.60
29321;DHT22;16323;51.130;6.612;2023-04-15T10:11:59;18.00;66.60
29321;DHT22;16323;51.130;6.612;2023-04-15T10:14:27;18.00;66.60
29321;DHT22;16323;51.130;6.612;2023-04-15T10:17:00;18.00;66.50
29321;DHT22;16323;51.130;6.612;2023-04-15T10:19:30;18.00;66.40
29321;DHT22;16323;51.130;6.612;2023-04-15T10:21:58;18.00;65.90
29321;DHT22;16323;51.130;6.612;2023-04-15T10:24:26;18.00;65.60
29321;DHT22;16323;51.130;6.612;2023-04-15T10:26:54;18.00;65.80
29321;DHT22;16323;51.130;6.612;2023-04-15T10:29:23;18.00;65.90
29321;DHT22;16323;51.130;6.612;2023-04-15T10:31:50;18.00;65.80
29321;DHT22;16323;51.130;6.612;2023-04-15T10:34:20;17.90;65.60
29321;DHT22;16323;51.130;6.612;2023-04-15T10:36:48;18.00;65.70
29321;DHT22;16323;51.130;6.612;2023-04-15T10:39:38;18.00;65.70
29321;DHT22;16323;51.130;6.612;2023-04-15T10:42:08;18.00;65.40
29321;DHT22;16323;51.130;6.612;2023-04-15T10:44:36;18.00;65.80
29321;DHT22;16323;51.130;6.612;2023-04-15T10:47:09;18.00;65.90
29321;DHT22;16323;51.130;6.612;2023-04-15T10:49:48;18.00;66.10
29321;DHT22;16323;51.130;6.612;2023-04-15T10:52:16;18.00;66.10
29321;DHT22;16323;51.130;6.612;2023-04-15T10:54:43;18.00;66.00
29321;DHT22;16323;51.130;6.612;2023-04-15T10:57:15;18.00;66.30
29321;DHT22;16323;51.130;6.612;2023-04-15T11:00:10;18.00;66.10
29321;DHT22;16323;51.130;6.612;2023-04-15T11:02:45;18.00;66.20
29321;DHT22;16323;51.130;6.612;2023-04-15T11:05:14;18.00;66.20
29321;DHT22;16323;51.130;6.612;2023-04-15T11:07:50;18.00;65.80
29321;DHT22;16323;51.130;6.612;2023-04-15T11:10:51;18.00;65.40
29321;DHT22;16323;51.130;6.612;2023-04-15T11:13:23;18.00;65.70
29321;DHT22;16323;51.130;6.612;2023-04-15T11:15:55;18.00;65.50
29321;DHT22;16323;51.130;6.612;2023-04-15T11:18:24;18.00;65.40
29321;DHT22;16323;51.130;6.612;2023-04-15T11:20:54;18.00;65.40
29321;DHT22;16323;51.130;6.612;2023-04-15T11:23:27;18.00;65.20
29321;DHT22;16323;51.130;6.612;2023-04-15T11:25:55;18.00;65.20
29321;DHT22;16323;51.130;6.612;2023-04-15T11:28:24;18.00;65.40
29321;DHT22;16323;51.130;6.612;2023-04-15T11:30:52;17.90;65.10
29321;DHT22;16323;51.130;6.612;2023-04-15T11:33:20;18.00;65.80
29321;DHT22;16323;51.130;6.612;2023-04-15T11:35:47;18.00;65.80
29321;DHT22;16323;51.130;6.612;2023-04-15T11:38:15;18.00;66.00
29321;DHT22;16323;51.130;6.612;2023-04-15T11:40:42;18.00;66.00
29321;DHT22;16323;51.130;6.612;2023-04-15T11:43:10;18.00;65.90
29321;DHT22;16323;51.130;6.612;2023-04-15T11:45:47;18.00;66.10
29321;DHT22;16323;51.130;6.612;2023-04-15T11:48:16;18.00;66.10
29321;DHT22;16323;51.130;6.612;2023-04-15T11:50:43;18.00;65.90
29321;DHT22;16323;51.130;6.612;2023-04-15T11:53:11;18.00;65.40
29321;DHT22;16323;51.130;6.612;2023-04-15T11:55:43;18.00;65.10
29321;DHT22;16323;51.130;6.612;2023-04-15T11:58:12;18.00;65.20
29321;DHT22;16323;51.130;6.612;2023-04-15T12:00:40;18.00;65.00
29321;DHT22;16323;51.130;6.612;2023-04-15T12:03:16;18.00;65.20
29321;DHT22;16323;51.130;6.612;2023-04-15T12:06:06;18.00;65.10
29321;DHT22;16323;51.130;6.612;2023-04-15T12:08:51;18.00;64.80
29321;DHT22;16323;51.130;6.612;2023-04-15T12:11:26;17.90;64.70
29321;DHT22;16323;51.130;6.612;2023-04-15T12:13:55;18.00;64.80
29321;DHT22;16323;51.130;6.612;2023-04-15T12:16:23;18.00;64.90
29321;DHT22;16323;51.130;6.612;2023-04-15T12:18:50;18.00;65.40
29321;DHT22;16323;51.130;6.612;2023-04-15T12:21:18;18.00;65.20
29321;DHT22;16323;51.130;6.612;2023-04-15T12:23:48;18.00;65.40
29321;DHT22;16323;51.130;6.612;2023-04-15T12:26:16;18.00;65.50
29321;DHT22;16323;51.130;6.612;2023-04-15T12:28:44;18.00;65.60
29321;DHT22;16323;51.130;6.612;2023-04-15T12:31:13;18.00;65.90
29321;DHT22;16323;51.130;6.612;2023-04-15T12:33:40;18.00;65.50
29321;DHT22;16323;51.130;6.612;2023-04-15T12:36:07;18.00;65.00
29321;DHT22;16323;51.130;6.612;2023-04-15T12:38:33;18.00;64.60
29321;DHT22;16323;51.130;6.612;2023-04-15T12:41:00;18.00;64.70
29321;DHT22;16323;51.130;6.612;2023-04-15T12:43:27;18.00;64.70
29321;DHT22;16323;51.130;6.612;2023-04-15T12:45:55;18.00;64.60
29321;DHT22;16323;51.130;6.612;2023-04-15T12:48:22;18.00;64.40
29321;DHT22;16323;51.130;6.612;2023-04-15T12:50:49;18.00;64.40
29321;DHT22;16323;51.130;6.612;2023-04-15T12:53:16;18.00;64.40
29321;DHT22;16323;51.130;6.612;2023-04-15T12:55:42;18.00;64.50
29321;DHT22;16323;51.130;6.612;2023-04-15T12:58:09;18.00;64.40
29321;DHT22;16323;51.130;6.612;2023-04-15T13:00:36;17.90;64.10
29321;DHT22;16323;51.130;6.612;2023-04-15T13:03:04;18.00;64.90
29321;DHT22;16323;51.130;6.612;2023-04-15T13:05:31;18.00;64.80
29321;DHT22;16323;51.130;6.612;2023-04-15T13:07:58;18.00;65.00
29321;DHT22;16323;51.130;6.612;2023-04-15T13:10:25;18.00;64.90
29321;DHT22;16323;51.130;6.612;2023-04-15T13:12:52;18.00;64.90
29321;DHT22;16323;51.130;6.612;2023-04-15T13:15:21;18.00;64.90
29321;DHT22;16323;51.130;6.612;2023-04-15T13:17:48;18.00;65.40
29321;DHT22;16323;51.130;6.612;2023-04-15T13:20:16;18.00;65.60
29321;DHT22;16323;51.130;6.612;2023-04-15T13:22:43;18.00;64.60
29321;DHT22;16323;51.130;6.612;2023-04-15T13:25:10;18.00;64.50
29321;DHT22;16323;51.130;6.612;2023-04-15T13:27:37;18.00;64.60
29321;DHT22;16323;51.130;6.612;2023-04-15T13:30:05;18.00;64.20
29321;DHT22;16323;51.130;6.612;2023-04-15T13:32:32;18.00;64.20
29321;DHT22;16323;51.130;6.612;2023-04-15T13:34:58;18.00;64.20
29321;DHT22;16323;51.130;6.612;2023-04-15T13:37:27;18.00;64.10
29321;DHT22;16323;51.130;6.612;2023-04-15T13:39:55;18.00;64.00
29321;DHT22;16323;51.130;6.612;2023-04-15T13:42:22;18.00;64.10
29321;DHT22;16323;51.130;6.612;2023-04-15T13:44:49;18.00;64.00
29321;DHT22;16323;51.130;6.612;2023-04-15T13:47:16;18.00;64.20
29321;DHT22;16323;51.130;6.612;2023-04-15T13:49:44;18.00;64.50
29321;DHT22;16323;51.130;6.612;2023-04-15T13:52:11;18.00;64.70
29321;DHT22;16323;51.130;6.612;2023-04-15T13:54:39;18.00;64.80
29321;DHT22;16323;51.130;6.612;2023-04-15T13:57:06;18.00;65.00
29321;DHT22;16323;51.130;6.612;2023-04-15T13:59:33;18.00;65.00
29321;DHT22;16323;51.130;6.612;2023-04-15T14:02:00;18.00;65.00
29321;DHT22;16323;51.130;6.612;2023-04-15T14:04:27;18.00;64.90
29321;DHT22;16323;51.130;6.612;2023-04-15T14:06:54;18.00;64.90
29321;DHT22;16323;51.130;6.612;2023-04-15T14:09:21;18.00;64.50
29321;DHT22;16323;51.130;6.612;2023-04-15T14:11:50;18.00;64.30
29321;DHT22;16323;51.130;6.612;2023-04-15T14:14:16;18.00;64.10
29321;DHT22;16323;51.130;6.612;2023-04-15T14:16:43;18.00;64.60
29321;DHT22;16323;51.130;6.612;2023-04-15T14:19:10;17.90;64.80
29321;DHT22;16323;51.130;6.612;2023-04-15T14:21:37;18.00;64.70
29321;DHT22;16323;51.130;6.612;2023-04-15T14:24:04;18.00;64.70
29321;DHT22;16323;51.130;6.612;2023-04-15T14:26:31;18.00;65.00
29321;DHT22;16323;51.130;6.612;2023-04-15T14:28:59;18.00;64.70
29321;DHT22;16323;51.130;6.612;2023-04-15T14:31:26;18.00;64.60
29321;DHT22;16323;51.130;6.612;2023-04-15T14:33:53;18.00;65.00
29321;DHT22;16323;51.130;6.612;2023-04-15T14:36:20;18.00;65.20
29321;DHT22;16323;51.130;6.612;2023-04-15T14:38:46;18.00;65.50
29321;DHT22;16323;51.130;6.612;2023-04-15T14:41:13;18.00;65.30
29321;DHT22;16323;51.130;6.612;2023-04-15T14:43:40;18.00;65.50
29321;DHT22;16323;51.130;6.612;2023-04-15T14:46:09;18.00;65.40
29321;DHT22;16323;51.130;6.612;2023-04-15T14:48:36;18.00;65.50
29321;DHT22;16323;51.130;6.612;2023-04-15T14:51:03;18.00;65.20
29321;DHT22;16323;51.130;6.612;2023-04-15T14:53:30;18.00;65.30
29321;DHT22;16323;51.130;6.612;2023-04-15T14:55:57;18.00;65.00
29321;DHT22;16323;51.130;6.612;2023-04-15T14:58:24;18.00;64.90
29321;DHT22;16323;51.130;6.612;2023-04-15T15:00:51;18.00;64.60
29321;DHT22;16323;51.130;6.612;2023-04-15T15:03:19;18.00;64.50
29321;DHT22;16323;51.130;6.612;2023-04-15T15:05:46;18.00;64.50
29321;DHT22;16323;51.130;6.612;2023-04-15T15:08:13;18.00;64.30
29321;DHT22;16323;51.130;6.612;2023-04-15T15:10:39;17.90;64.20
29321;DHT22;16323;51.130;6.612;2023-04-15T15:13:08;17.90;64.00
29321;DHT22;16323;51.130;6.612;2023-04-15T15:15:36;17.90;64.10
29321;DHT22;16323;51.130;6.612;2023-04-15T15:18:03;17.90;64.30
29321;DHT22;16323;51.130;6.612;2023-04-15T15:20:32;18.00;65.70
29321;DHT22;16323;51.130;6.612;2023-04-15T15:23:00;18.00;64.90
29321;DHT22;16323;51.130;6.612;2023-04-15T15:25:27;18.00;65.00
29321;DHT22;16323;51.130;6.612;2023-04-15T15:27:54;18.00;65.00
29321;DHT22;16323;51.130;6.612;2023-04-15T15:30:20;18.00;64.90
29321;DHT22;16323;51.130;6.612;2023-04-15T15:32:47;18.00;65.00
29321;DHT22;16323;51.130;6.612;2023-04-15T15:35:14;18.00;65.00